sensor_id;sensor_type;location;lat;lon;timestamp;P1;durP1;ratioP1;P2;durP2;ratioP2
40588;SDS011;26297;49.450;6.640;2023-03-22T00:02:26;4.20;;;2.10;;
40588;SDS011;26297;49.450;6.640;2023-03-22T00:45:09;5.43;;;2.70;;
40588;SDS011;26297;49.450;6.640;2023-03-22T01:12:43;3.63;;;2.75;;
40588;SDS011;26297;49.450;6.640;2023-03-22T01:16:29;6.78;;;3.50;;
40588;SDS011;26297;49.450;6.640;2023-03-22T01:20:04;8.50;;;2.95;;
40588;SDS011;26297;49.450;6.640;2023-03-22T01:23:57;4.50;;;2.97;;
40588;SDS011;26297;49.450;6.640;2023-03-22T01:27:42;5.32;;;2.88;;
40588;SDS011;26297;49.450;6.640;2023-03-22T01:31:50;5.70;;;2.83;;
40588;SDS011;26297;49.450;6.640;2023-03-22T01:36:35;7.03;;;2.80;;
40588;SDS011;26297;49.450;6.640;2023-03-22T01:40:41;6.13;;;2.43;;
40588;SDS011;26297;49.450;6.640;2023-03-22T01:44:27;2.92;;;2.03;;
40588;SDS011;26297;49.450;6.640;2023-03-22T01:48:09;4.78;;;2.60;;
40588;SDS011;26297;49.450;6.640;2023-03-22T01:52:01;3.90;;;2.25;;
40588;SDS011;26297;49.450;6.640;2023-03-22T01:55:48;3.28;;;2.65;;
40588;SDS011;26297;49.450;6.640;2023-03-22T01:59:48;6.38;;;2.58;;
40588;SDS011;26297;49.450;6.640;2023-03-22T02:03:28;3.35;;;2.70;;
40588;SDS011;26297;49.450;6.640;2023-03-22T02:07:36;5.75;;;3.05;;
40588;SDS011;26297;49.450;6.640;2023-03-22T02:11:20;3.55;;;2.20;;
40588;SDS011;26297;49.450;6.640;2023-03-22T03:49:34;2.90;;;2.55;;
40588;SDS011;26297;49.450;6.640;2023-03-22T03:57:08;3.90;;;2.67;;
40588;SDS011;26297;49.450;6.640;2023-03-22T04:00:53;3.17;;;2.45;;
40588;SDS011;26297;49.450;6.640;2023-03-22T04:04:10;3.30;;;2.80;;
40588;SDS011;26297;49.450;6.640;2023-03-22T04:07:50;4.10;;;2.83;;
40588;SDS011;26297;49.450;6.640;2023-03-22T04:11:26;4.10;;;3.00;;
40588;SDS011;26297;49.450;6.640;2023-03-22T04:29:06;4.73;;;3.70;;
40588;SDS011;26297;49.450;6.640;2023-03-22T04:32:21;3.90;;;3.50;;
40588;SDS011;26297;49.450;6.640;2023-03-22T04:44:26;3.40;;;2.70;;
40588;SDS011;26297;49.450;6.640;2023-03-22T04:52:23;2.28;;;2.08;;
40588;SDS011;26297;49.450;6.640;2023-03-22T04:56:11;2.67;;;2.20;;
40588;SDS011;26297;49.450;6.640;2023-03-22T05:00:53;2.40;;;2.17;;
40588;SDS011;26297;49.450;6.640;2023-03-22T05:09:57;2.47;;;2.03;;
40588;SDS011;26297;49.450;6.640;2023-03-22T05:13:22;3.97;;;1.83;;
40588;SDS011;26297;49.450;6.640;2023-03-22T05:17:06;2.63;;;1.98;;
40588;SDS011;26297;49.450;6.640;2023-03-22T05:21:10;4.07;;;2.63;;
40588;SDS011;26297;49.450;6.640;2023-03-22T05:24:55;2.50;;;2.25;;
40588;SDS011;26297;49.450;6.640;2023-03-22T05:28:18;4.07;;;2.28;;
40588;SDS011;26297;49.450;6.640;2023-03-22T05:32:25;2.95;;;1.88;;
40588;SDS011;26297;49.450;6.640;2023-03-22T05:36:05;2.65;;;2.22;;
40588;SDS011;26297;49.450;6.640;2023-03-22T05:40:24;3.67;;;2.50;;
40588;SDS011;26297;49.450;6.640;2023-03-22T06:13:13;3.27;;;2.13;;
40588;SDS011;26297;49.450;6.640;2023-03-22T06:16:39;2.67;;;2.10;;
40588;SDS011;26297;49.450;6.640;2023-03-22T06:19:43;3.42;;;2.05;;
40588;SDS011;26297;49.450;6.640;2023-03-22T06:23:11;2.30;;;2.10;;
40588;SDS011;26297;49.450;6.640;2023-03-22T06:26:53;3.25;;;2.00;;
40588;SDS011;26297;49.450;6.640;2023-03-22T06:30:26;3.63;;;2.00;;
40588;SDS011;26297;49.450;6.640;2023-03-22T06:33:53;2.72;;;2.03;;
40588;SDS011;26297;49.450;6.640;2023-03-22T06:37:18;3.50;;;2.22;;
40588;SDS011;26297;49.450;6.640;2023-03-22T06:40:57;4.30;;;2.83;;
40588;SDS011;26297;49.450;6.640;2023-03-22T06:44:56;3.85;;;2.08;;
40588;SDS011;26297;49.450;6.640;2023-03-22T06:48:24;2.95;;;2.22;;
40588;SDS011;26297;49.450;6.640;2023-03-22T07:28:21;3.03;;;2.35;;
40588;SDS011;26297;49.450;6.640;2023-03-22T07:31:24;1.73;;;1.30;;
40588;SDS011;26297;49.450;6.640;2023-03-22T07:34:27;3.35;;;1.42;;
40588;SDS011;26297;49.450;6.640;2023-03-22T07:37:31;1.85;;;1.45;;
40588;SDS011;26297;49.450;6.640;2023-03-22T07:40:35;1.65;;;1.50;;
40588;SDS011;26297;49.450;6.640;2023-03-22T07:52:05;3.73;;;1.50;;
40588;SDS011;26297;49.450;6.640;2023-03-22T07:55:10;1.65;;;1.05;;
40588;SDS011;26297;49.450;6.640;2023-03-22T07:58:15;1.88;;;1.35;;
40588;SDS011;26297;49.450;6.640;2023-03-22T08:01:19;2.45;;;1.73;;
40588;SDS011;26297;49.450;6.640;2023-03-22T08:04:22;4.30;;;1.60;;
40588;SDS011;26297;49.450;6.640;2023-03-22T08:07:26;3.45;;;1.73;;
40588;SDS011;26297;49.450;6.640;2023-03-22T08:10:32;2.95;;;1.52;;
40588;SDS011;26297;49.450;6.640;2023-03-22T08:13:56;2.47;;;1.67;;
40588;SDS011;26297;49.450;6.640;2023-03-22T08:17:05;3.33;;;1.73;;
40588;SDS011;26297;49.450;6.640;2023-03-22T08:20:09;2.33;;;1.75;;
40588;SDS011;26297;49.450;6.640;2023-03-22T08:23:14;2.00;;;1.45;;
40588;SDS011;26297;49.450;6.640;2023-03-22T08:26:21;2.38;;;1.50;;
40588;SDS011;26297;49.450;6.640;2023-03-22T08:29:30;2.25;;;1.17;;
40588;SDS011;26297;49.450;6.640;2023-03-22T08:32:41;1.48;;;1.33;;
40588;SDS011;26297;49.450;6.640;2023-03-22T08:35:47;1.65;;;1.15;;
40588;SDS011;26297;49.450;6.640;2023-03-22T08:38:50;2.08;;;1.42;;
40588;SDS011;26297;49.450;6.640;2023-03-22T08:41:54;2.10;;;1.92;;
40588;SDS011;26297;49.450;6.640;2023-03-22T08:44:57;2.65;;;1.60;;
40588;SDS011;26297;49.450;6.640;2023-03-22T08:48:01;2.55;;;1.35;;
40588;SDS011;26297;49.450;6.640;2023-03-22T08:51:05;4.93;;;1.77;;
40588;SDS011;26297;49.450;6.640;2023-03-22T08:54:08;3.10;;;1.48;;
40588;SDS011;26297;49.450;6.640;2023-03-22T08:57:12;3.28;;;1.48;;
40588;SDS011;26297;49.450;6.640;2023-03-22T09:00:17;3.78;;;2.00;;
40588;SDS011;26297;49.450;6.640;2023-03-22T09:03:21;4.93;;;1.90;;
40588;SDS011;26297;49.450;6.640;2023-03-22T09:06:27;3.95;;;2.20;;
40588;SDS011;26297;49.450;6.640;2023-03-22T09:09:43;10.75;;;4.05;;
40588;SDS011;26297;49.450;6.640;2023-03-22T09:12:54;7.18;;;2.78;;
40588;SDS011;26297;49.450;6.640;2023-03-22T09:16:03;3.58;;;1.70;;
40588;SDS011;26297;49.450;6.640;2023-03-22T09:19:19;3.17;;;1.52;;
40588;SDS011;26297;49.450;6.640;2023-03-22T09:22:25;7.38;;;2.30;;
40588;SDS011;26297;49.450;6.640;2023-03-22T09:25:28;2.30;;;1.10;;
40588;SDS011;26297;49.450;6.640;2023-03-22T09:28:32;5.65;;;2.58;;
40588;SDS011;26297;49.450;6.640;2023-03-22T09:31:43;4.45;;;2.85;;
40588;SDS011;26297;49.450;6.640;2023-03-22T09:35:06;3.05;;;1.00;;
40588;SDS011;26297;49.450;6.640;2023-03-22T09:38:14;1.98;;;0.90;;
40588;SDS011;26297;49.450;6.640;2023-03-22T10:13:50;3.63;;;0.80;;
40588;SDS011;26297;49.450;6.640;2023-03-22T10:25:32;0.70;;;0.70;;
40588;SDS011;26297;49.450;6.640;2023-03-22T10:33:38;0.82;;;0.60;;
40588;SDS011;26297;49.450;6.640;2023-03-22T10:37:07;0.77;;;0.70;;
40588;SDS011;26297;49.450;6.640;2023-03-22T10:41:02;2.35;;;0.82;;
40588;SDS011;26297;49.450;6.640;2023-03-22T10:44:52;0.60;;;0.57;;
40588;SDS011;26297;49.450;6.640;2023-03-22T10:48:41;0.68;;;0.68;;
40588;SDS011;26297;49.450;6.640;2023-03-22T10:59:08;3.83;;;0.80;;
40588;SDS011;26297;49.450;6.640;2023-03-22T11:03:43;0.95;;;0.60;;
40588;SDS011;26297;49.450;6.640;2023-03-22T11:20:56;1.52;;;0.70;;
40588;SDS011;26297;49.450;6.640;2023-03-22T11:29:16;1.75;;;0.80;;
40588;SDS011;26297;49.450;6.640;2023-03-22T11:36:49;2.00;;;0.80;;
40588;SDS011;26297;49.450;6.640;2023-03-22T11:40:41;1.55;;;0.80;;
40588;SDS011;26297;49.450;6.640;2023-03-22T11:54:43;1.13;;;0.85;;
40588;SDS011;26297;49.450;6.640;2023-03-22T11:58:54;1.85;;;0.70;;
40588;SDS011;26297;49.450;6.640;2023-03-22T12:07:17;1.15;;;0.80;;
40588;SDS011;26297;49.450;6.640;2023-03-22T12:35:39;0.60;;;0.60;;
40588;SDS011;26297;49.450;6.640;2023-03-22T16:43:39;1.15;;;0.70;;
40588;SDS011;26297;49.450;6.640;2023-03-22T16:51:08;0.82;;;0.70;;
40588;SDS011;26297;49.450;6.640;2023-03-22T16:55:04;1.63;;;0.70;;
40588;SDS011;26297;49.450;6.640;2023-03-22T16:58:54;0.80;;;0.45;;
40588;SDS011;26297;49.450;6.640;2023-03-22T17:13:46;3.40;;;1.30;;
40588;SDS011;26297;49.450;6.640;2023-03-22T17:17:21;2.72;;;1.25;;
40588;SDS011;26297;49.450;6.640;2023-03-22T20:10:21;0.95;;;0.60;;
40588;SDS011;26297;49.450;6.640;2023-03-22T20:13:56;1.33;;;0.65;;
40588;SDS011;26297;49.450;6.640;2023-03-22T20:34:27;1.00;;;0.80;;
40588;SDS011;26297;49.450;6.640;2023-03-22T20:43:55;1.77;;;0.68;;
40588;SDS011;26297;49.450;6.640;2023-03-22T20:50:01;1.48;;;0.55;;
40588;SDS011;26297;49.450;6.640;2023-03-22T20:53:07;0.60;;;0.60;;
40588;SDS011;26297;49.450;6.640;2023-03-22T20:56:21;1.00;;;0.75;;
40588;SDS011;26297;49.450;6.640;2023-03-22T21:08:00;1.73;;;0.40;;
40588;SDS011;26297;49.450;6.640;2023-03-22T21:11:25;1.52;;;0.50;;
40588;SDS011;26297;49.450;6.640;2023-03-22T21:29:01;0.30;;;0.30;;
40588;SDS011;26297;49.450;6.640;2023-03-22T21:32:25;0.30;;;0.30;;
40588;SDS011;26297;49.450;6.640;2023-03-22T21:35:31;0.32;;;0.32;;
40588;SDS011;26297;49.450;6.640;2023-03-22T21:38:35;0.68;;;0.50;;
40588;SDS011;26297;49.450;6.640;2023-03-22T21:44:48;0.65;;;0.35;;
40588;SDS011;26297;49.450;6.640;2023-03-22T21:48:02;0.90;;;0.40;;
40588;SDS011;26297;49.450;6.640;2023-03-22T21:51:47;1.02;;;0.38;;
40588;SDS011;26297;49.450;6.640;2023-03-22T21:55:08;1.23;;;0.50;;
40588;SDS011;26297;49.450;6.640;2023-03-22T21:59:07;0.50;;;0.50;;
40588;SDS011;26297;49.450;6.640;2023-03-22T22:05:22;0.60;;;0.37;;
40588;SDS011;26297;49.450;6.640;2023-03-22T22:08:45;0.70;;;0.38;;
40588;SDS011;26297;49.450;6.640;2023-03-22T22:11:50;0.28;;;0.20;;
40588;SDS011;26297;49.450;6.640;2023-03-22T22:14:57;0.32;;;0.32;;
40588;SDS011;26297;49.450;6.640;2023-03-22T22:18:17;0.43;;;0.43;;
40588;SDS011;26297;49.450;6.640;2023-03-22T22:21:26;0.30;;;0.30;;
